McAlester, OK (74501)

2:30 AM CST on February 24, 2017 (GMT -0600)
South McAlester | | Change Station

Elev 751 ft 34.92 °N, 95.75 °W | Updated 33 seconds ago

Partly Cloudy
Partly Cloudy
61.7 °F
Feels Like 61.7 °F
N
8.3
Wind Variable Wind from NNE

Today
High -- | Low -- °F
--% Chance of Precip.
Yesterday
High -- | Low -- °F
Precip. -- in
Pressure 29.49 in
Visibility 10.0 miles
Clouds Few 6000 ft
Scattered Clouds 7500 ft
Scattered Clouds 10000 ft
Dew Point 56 °F
Humidity 83%
Rainfall 0.00 in
Snow Depth Not available.
6:58 AM 6:14 PM
Waning Crescent, 6% visible
METAR KMLC 240753Z AUTO 20008KT 10SM FEW060 SCT075 SCT100 20/11 A2952 RMK AO2 SLP986 T02000111
Pressure 29.49 in
Visibility 10.0 miles
Clouds Few 6000 ft
Scattered Clouds 7500 ft
Scattered Clouds 10000 ft
Dew Point 56 °F
Humidity 83%
Rainfall 0.00 in
Snow Depth Not available.
6:58 AM 6:14 PM
Waning Crescent, 6% visible
METAR KMLC 240753Z AUTO 20008KT 10SM FEW060 SCT075 SCT100 20/11 A2952 RMK AO2 SLP986 T02000111

Get Your Daily Forecast Email!

Thanks for signing up!

Be on the lookout for a verification email in your inbox.

You'll start receiving the daily forecast at 8 AM.

×

10-Day Weather Forecast

Almanac

Astronomy

Feb. 24, 2017 Rise Set
Actual Time
Civil Twilight
Nautical Twilight
Astronomical Twilight
Moon
Length of Visible Light
Length of Day
Tomorrow will be .
, % of the Moon is Illuminated

Today's Extremes

State Highs State Lows

Community

WunderPhotos

Upload Photos

1,962,540 photos uploaded!

WunderBlog® & News

Nearby

Air Quality

  Air Quality AQ Index Pollutant
Not available.

Snow Depth

Station Depth Elevation

Earthquake Activity

City Distance Mag. Time & Date
Minimum magnitude displayed is 2.5.

Coastal Water Temperatures

Place Temperature

Stations

Nearby Weather Stations

Station Location Temp. Windchill Dew Point Humidity Wind Precip. Elev Updated Type
                   

Watches & Warnings

There are currently no watches in effect.